首页
METAR-TAF:

METAR-TAF

机场 :

William H. Morse State Airport

本宁顿, 佛蒙特州, 美国

纬度: 42-53-24N, 经度: 073-14-47W, 海拔: 252米

当前天气观测

该预报发布于44分钟前的05:54 UTC
风速3节,风向多变
温度 19°C
湿度 68%
气压 1010 hPa
能見度: 16.1公里
天空无云

METAR: KDDH 250554Z AUTO VRB03KT 10SM CLR 19/13 A2983 RMK AO2 SLP097 T01890128 10228 20161 58008

时间: 02:38 (06:38 UTC)


TAF: 丢失

超过4000个机场的气象观测和天气预报(METAR&TAF报告)。

可查询的气象台以黄色和红色小点在地图上表示。

将鼠标移到小点上方,可查看气象台名称。

然后点击查看天气观测和预报。

如需切换地图:点击带黑十字的绿色按钮放大地图;点击带横线的绿色按钮缩小地图;或者点击绿色箭头查看邻近地区的地图。


METAR-TAF: